^^
Saratoga-Weather Station Historical Data
Daily Summary for December 6, 2021 Units:  Both    English   Metric
Daily Weekly Monthly Yearly Custom
  High: Low: Average:
Temperature: 38.5 °F /  3.6 °C 32.5 °F /  0.3 °C 35.2 °F /  1.8 °C
Dew Point: 36.7 °F /  2.6 °C 31.8 °F /  -0.1 °C 34.3 °F /  1.3 °C
Humidity: 97% 92% 96%
Wind Speed: 4mph /  6.4km/h - 0.3mph /  0.5km/h
Wind Gust: 7mph /  11.3km/h - -
Wind- - South
Pressure: 30 in /  1015.9 hPa 29.8 in /  1009.1 hPa -
Precipitation: 0.01 in /  0.2 mm    
Historical Graphs
 
 
Tabular Data for December 6, 2021
Time Temperature Dew Point Pressure Wind Wind Speed Wind Gust Humidity Rainfall Rate (Hourly) solar
00:01 34.5 °F /  1.4 °C 33.4 °F /  0.8 °C 29.8in /  1009.1hPa Calm     96% 0in /  0.0mm 0 W/m2
00:06 34.5 °F /  1.4 °C 33.4 °F /  0.8 °C 29.8in /  1009.1hPa Calm     96% 0in /  0.0mm 0 W/m2
00:11 34.5 °F /  1.4 °C 33.4 °F /  0.8 °C 29.8in /  1009.1hPa Calm     96% 0in /  0.0mm 0 W/m2
00:16 34.5 °F /  1.4 °C 33.4 °F /  0.8 °C 29.8in /  1009.1hPa Calm     96% 0in /  0.0mm 0 W/m2
00:21 34.7 °F /  1.5 °C 33.6 °F /  0.9 °C 29.8in /  1009.1hPa Calm     96% 0in /  0.0mm 0 W/m2
00:26 34.7 °F /  1.5 °C 34 °F /  1.1 °C 29.8in /  1009.1hPa Calm     97% 0in /  0.0mm 0 W/m2
00:31 34.9 °F /  1.6 °C 34.2 °F /  1.2 °C 29.8in /  1009.1hPa Calm     97% 0in /  0.0mm 0 W/m2
00:36 34.9 °F /  1.6 °C 34.2 °F /  1.2 °C 29.8in /  1009.1hPa Calm     97% 0in /  0.0mm 0 W/m2
00:41 34.9 °F /  1.6 °C 34.2 °F /  1.2 °C 29.8in /  1009.5hPa Calm     97% 0in /  0.0mm 0 W/m2
00:46 34.9 °F /  1.6 °C 34.2 °F /  1.2 °C 29.8in /  1009.5hPa Calm     97% 0in /  0.0mm 0 W/m2
00:51 34.9 °F /  1.6 °C 34.2 °F /  1.2 °C 29.8in /  1009.5hPa Calm     97% 0in /  0.0mm 0 W/m2
00:56 34.9 °F /  1.6 °C 34.2 °F /  1.2 °C 29.8in /  1009.5hPa Calm     97% 0in /  0.0mm 0 W/m2
01:01 34.7 °F /  1.5 °C 34 °F /  1.1 °C 29.8in /  1009.5hPa Calm   1mph /  1.6km/h 97% 0in /  0.0mm 0 W/m2
01:06 34.5 °F /  1.4 °C 33.4 °F /  0.8 °C 29.8in /  1009.8hPa Calm     96% 0in /  0.0mm 0 W/m2
01:11 34.5 °F /  1.4 °C 33.4 °F /  0.8 °C 29.8in /  1009.8hPa Calm     96% 0in /  0.0mm 0 W/m2
01:16 34.5 °F /  1.4 °C 33.4 °F /  0.8 °C 29.8in /  1009.8hPa Calm     96% 0in /  0.0mm 0 W/m2
01:21 34.5 °F /  1.4 °C 33.4 °F /  0.8 °C 29.8in /  1009.8hPa Calm     96% 0in /  0.0mm 0 W/m2
01:26 34.5 °F /  1.4 °C 33.4 °F /  0.8 °C 29.8in /  1010.2hPa Calm     96% 0.01in /  0.2mm 0 W/m2
01:31 34.5 °F /  1.4 °C 33.4 °F /  0.8 °C 29.8in /  1010.2hPa Calm     96% 0.01in /  0.2mm 0 W/m2
01:36 34.5 °F /  1.4 °C 33.4 °F /  0.8 °C 29.8in /  1010.2hPa Calm     96% 0.01in /  0.2mm 0 W/m2
01:41 34.5 °F /  1.4 °C 33.4 °F /  0.8 °C 29.8in /  1010.2hPa Calm     96% 0.01in /  0.2mm 0 W/m2
01:46 34.7 °F /  1.5 °C 34 °F /  1.1 °C 29.8in /  1010.2hPa Calm     97% 0.01in /  0.2mm 0 W/m2
01:52 34.9 °F /  1.6 °C 33.8 °F /  1 °C 29.8in /  1010.2hPa Calm     96% 0.01in /  0.2mm 0 W/m2
01:57 34.9 °F /  1.6 °C 34.2 °F /  1.2 °C 29.8in /  1010.2hPa Calm     97% 0.01in /  0.2mm 0 W/m2
02:02 34.9 °F /  1.6 °C 34.2 °F /  1.2 °C 29.8in /  1010.2hPa Calm     97% 0.01in /  0.2mm 0 W/m2
02:07 34.9 °F /  1.6 °C 34.2 °F /  1.2 °C 29.8in /  1010.2hPa Calm     97% 0.01in /  0.2mm 0 W/m2
02:12 35.1 °F /  1.7 °C 34.3 °F /  1.3 °C 29.8in /  1010.5hPa Calm     97% 0.01in /  0.2mm 0 W/m2
02:17 35.1 °F /  1.7 °C 34.3 °F /  1.3 °C 29.8in /  1010.5hPa Calm     97% 0.01in /  0.2mm 0 W/m2
02:22 35.1 °F /  1.7 °C 34.3 °F /  1.3 °C 29.8in /  1010.5hPa Calm     97% 0.01in /  0.2mm 0 W/m2
02:27 35.1 °F /  1.7 °C 34.3 °F /  1.3 °C 29.9in /  1010.8hPa Calm     97% 0in /  0.0mm 0 W/m2
02:32 35.1 °F /  1.7 °C 34.3 °F /  1.3 °C 29.9in /  1010.8hPa Calm     97% 0in /  0.0mm 0 W/m2
02:37 35.1 °F /  1.7 °C 34.3 °F /  1.3 °C 29.9in /  1010.8hPa Calm     97% 0in /  0.0mm 0 W/m2
02:42 35.1 °F /  1.7 °C 34.3 °F /  1.3 °C 29.9in /  1010.8hPa Calm     97% 0in /  0.0mm 0 W/m2
02:47 35.1 °F /  1.7 °C 34.3 °F /  1.3 °C 29.9in /  1010.8hPa Calm     97% 0in /  0.0mm 0 W/m2
02:52 35.2 °F /  1.8 °C 34.5 °F /  1.4 °C 29.9in /  1010.8hPa Calm     97% 0in /  0.0mm 0 W/m2
02:57 35.2 °F /  1.8 °C 34.5 °F /  1.4 °C 29.9in /  1010.8hPa Calm     97% 0in /  0.0mm 0 W/m2
03:02 35.2 °F /  1.8 °C 34.5 °F /  1.4 °C 29.9in /  1010.8hPa Calm     97% 0in /  0.0mm 0 W/m2
03:07 35.2 °F /  1.8 °C 34.5 °F /  1.4 °C 29.9in /  1011.2hPa Calm     97% 0in /  0.0mm 0 W/m2
03:12 35.2 °F /  1.8 °C 34.5 °F /  1.4 °C 29.9in /  1011.2hPa Calm     97% 0in /  0.0mm 0 W/m2
03:17 35.2 °F /  1.8 °C 34.5 °F /  1.4 °C 29.9in /  1011.2hPa Calm     97% 0in /  0.0mm 0 W/m2
03:22 35.2 °F /  1.8 °C 34.5 °F /  1.4 °C 29.9in /  1011.2hPa Calm     97% 0in /  0.0mm 0 W/m2
03:27 35.2 °F /  1.8 °C 34.5 °F /  1.4 °C 29.9in /  1011.2hPa Calm     97% 0in /  0.0mm 0 W/m2
03:32 35.4 °F /  1.9 °C 34.7 °F /  1.5 °C 29.9in /  1011.2hPa Calm     97% 0in /  0.0mm 0 W/m2
03:37 35.4 °F /  1.9 °C 34.7 °F /  1.5 °C 29.9in /  1011.5hPa Calm     97% 0in /  0.0mm 0 W/m2
03:42 35.4 °F /  1.9 °C 34.7 °F /  1.5 °C 29.9in /  1011.5hPa Calm     97% 0in /  0.0mm 0 W/m2
03:47 35.4 °F /  1.9 °C 34.7 °F /  1.5 °C 29.9in /  1011.5hPa Calm     97% 0in /  0.0mm 0 W/m2
03:52 35.4 °F /  1.9 °C 34.7 °F /  1.5 °C 29.9in /  1011.5hPa Calm     97% 0in /  0.0mm 0 W/m2
03:57 35.4 °F /  1.9 °C 34.7 °F /  1.5 °C 29.9in /  1011.5hPa Calm     97% 0in /  0.0mm 0 W/m2
04:02 35.4 °F /  1.9 °C 34.7 °F /  1.5 °C 29.9in /  1011.5hPa Calm     97% 0in /  0.0mm 0 W/m2
04:07 35.4 °F /  1.9 °C 34.7 °F /  1.5 °C 29.9in /  1011.5hPa Calm     97% 0in /  0.0mm 0 W/m2
04:12 35.4 °F /  1.9 °C 34.7 °F /  1.5 °C 29.9in /  1011.5hPa Calm     97% 0in /  0.0mm 0 W/m2
04:17 35.4 °F /  1.9 °C 34.7 °F /  1.5 °C 29.9in /  1011.9hPa Calm     97% 0in /  0.0mm 0 W/m2
04:22 35.4 °F /  1.9 °C 34.7 °F /  1.5 °C 29.9in /  1011.9hPa Calm     97% 0in /  0.0mm 0 W/m2
04:27 35.6 °F /  2 °C 34.9 °F /  1.6 °C 29.9in /  1011.9hPa Calm     97% 0in /  0.0mm 0 W/m2
04:32 35.6 °F /  2 °C 34.9 °F /  1.6 °C 29.9in /  1011.9hPa Calm     97% 0in /  0.0mm 0 W/m2
04:37 35.6 °F /  2 °C 34.9 °F /  1.6 °C 29.9in /  1011.9hPa Calm     97% 0in /  0.0mm 0 W/m2
04:42 35.6 °F /  2 °C 34.9 °F /  1.6 °C 29.9in /  1011.9hPa Calm     97% 0in /  0.0mm 0 W/m2
04:47 35.8 °F /  2.1 °C 35.1 °F /  1.7 °C 29.9in /  1011.9hPa Calm     97% 0in /  0.0mm 0 W/m2
04:52 35.8 °F /  2.1 °C 35.1 °F /  1.7 °C 29.9in /  1012.2hPa Calm     97% 0in /  0.0mm 0 W/m2
04:57 35.8 °F /  2.1 °C 35.1 °F /  1.7 °C 29.9in /  1012.2hPa Calm     97% 0in /  0.0mm 0 W/m2
05:02 35.8 °F /  2.1 °C 35.1 °F /  1.7 °C 29.9in /  1012.2hPa Calm     97% 0in /  0.0mm 0 W/m2
05:07 35.8 °F /  2.1 °C 35.1 °F /  1.7 °C 29.9in /  1012.2hPa Calm     97% 0in /  0.0mm 0 W/m2
05:12 35.8 °F /  2.1 °C 35.1 °F /  1.7 °C 29.9in /  1012.2hPa Calm     97% 0in /  0.0mm 0 W/m2
05:17 35.8 °F /  2.1 °C 35.1 °F /  1.7 °C 29.9in /  1012.2hPa Calm     97% 0in /  0.0mm 0 W/m2
05:22 36 °F /  2.2 °C 35.2 °F /  1.8 °C 29.9in /  1012.2hPa Calm     97% 0in /  0.0mm 0 W/m2
05:27 36 °F /  2.2 °C 35.2 °F /  1.8 °C 29.9in /  1012.2hPa Calm     97% 0in /  0.0mm 0 W/m2
05:32 36 °F /  2.2 °C 35.2 °F /  1.8 °C 29.9in /  1012.5hPa Calm     97% 0in /  0.0mm 0 W/m2
05:37 36 °F /  2.2 °C 35.2 °F /  1.8 °C 29.9in /  1012.5hPa Calm     97% 0in /  0.0mm 0 W/m2
05:42 36 °F /  2.2 °C 35.2 °F /  1.8 °C 29.9in /  1012.5hPa Calm     97% 0in /  0.0mm 0 W/m2
05:47 35.8 °F /  2.1 °C 35.1 °F /  1.7 °C 29.9in /  1012.5hPa Calm     97% 0in /  0.0mm 0 W/m2
05:52 36 °F /  2.2 °C 35.2 °F /  1.8 °C 29.9in /  1012.9hPa Calm     97% 0in /  0.0mm 0 W/m2
05:57 35.8 °F /  2.1 °C 35.1 °F /  1.7 °C 29.9in /  1012.9hPa Calm     97% 0in /  0.0mm 0 W/m2
06:02 35.8 °F /  2.1 °C 35.1 °F /  1.7 °C 29.9in /  1012.9hPa Calm     97% 0in /  0.0mm 0 W/m2
06:07 35.8 °F /  2.1 °C 35.1 °F /  1.7 °C 29.9in /  1012.9hPa Calm     97% 0in /  0.0mm 0 W/m2
06:12 35.8 °F /  2.1 °C 35.1 °F /  1.7 °C 29.9in /  1012.9hPa Calm     97% 0in /  0.0mm 0 W/m2
06:17 35.8 °F /  2.1 °C 35.1 °F /  1.7 °C 29.9in /  1012.9hPa Calm     97% 0in /  0.0mm 0 W/m2
06:22 35.4 °F /  1.9 °C 34.7 °F /  1.5 °C 29.9in /  1012.9hPa Calm     97% 0in /  0.0mm 0 W/m2
06:27 35.4 °F /  1.9 °C 34.7 °F /  1.5 °C 29.9in /  1013.2hPa Calm     97% 0in /  0.0mm 0 W/m2
06:32 35.2 °F /  1.8 °C 34.5 °F /  1.4 °C 29.9in /  1013.2hPa Calm     97% 0in /  0.0mm 0 W/m2
06:37 35.2 °F /  1.8 °C 34.5 °F /  1.4 °C 29.9in /  1013.5hPa Calm     97% 0in /  0.0mm 0 W/m2
06:42 35.1 °F /  1.7 °C 34.3 °F /  1.3 °C 29.9in /  1013.5hPa Calm     97% 0in /  0.0mm 0 W/m2
06:47 35.1 °F /  1.7 °C 34.3 °F /  1.3 °C 29.9in /  1013.2hPa Calm     97% 0in /  0.0mm 0 W/m2
06:52 34.9 °F /  1.6 °C 34.2 °F /  1.2 °C 29.9in /  1013.2hPa Calm     97% 0in /  0.0mm 0 W/m2
06:57 34.9 °F /  1.6 °C 33.8 °F /  1 °C 29.9in /  1013.5hPa Calm     96% 0in /  0.0mm 0 W/m2
07:02 34.5 °F /  1.4 °C 33.4 °F /  0.8 °C 29.9in /  1013.5hPa Calm     96% 0in /  0.0mm 0 W/m2
07:07 34.3 °F /  1.3 °C 33.3 °F /  0.7 °C 29.9in /  1013.9hPa Calm     96% 0in /  0.0mm 0 W/m2
07:13 34.2 °F /  1.2 °C 33.1 °F /  0.6 °C 29.9in /  1013.9hPa Calm     96% 0in /  0.0mm 0 W/m2
07:18 34 °F /  1.1 °C 32.9 °F /  0.5 °C 29.9in /  1013.9hPa Calm     96% 0in /  0.0mm 0 W/m2
07:23 33.6 °F /  0.9 °C 32.5 °F /  0.3 °C 29.9in /  1013.9hPa Calm     96% 0in /  0.0mm 0 W/m2
07:28 33.6 °F /  0.9 °C 32.5 °F /  0.3 °C 30in /  1014.2hPa Calm     96% 0in /  0.0mm 0 W/m2
07:33 33.6 °F /  0.9 °C 32.9 °F /  0.5 °C 30in /  1014.2hPa Calm     97% 0in /  0.0mm 0 W/m2
07:38 33.4 °F /  0.8 °C 32.4 °F /  0.2 °C 30in /  1014.2hPa Calm     96% 0in /  0.0mm 0 W/m2
07:43 33.4 °F /  0.8 °C 32.4 °F /  0.2 °C 30in /  1014.2hPa Calm     96% 0in /  0.0mm 0 W/m2
07:48 33.3 °F /  0.7 °C 32.2 °F /  0.1 °C 30in /  1014.2hPa Calm     96% 0in /  0.0mm 0 W/m2
07:53 33.3 °F /  0.7 °C 32.5 °F /  0.3 °C 30in /  1014.2hPa Calm     97% 0in /  0.0mm 0 W/m2
07:58 33.3 °F /  0.7 °C 32.5 °F /  0.3 °C 29.9in /  1013.9hPa Calm     97% 0in /  0.0mm 0 W/m2
08:03 33.3 °F /  0.7 °C 32.5 °F /  0.3 °C 30in /  1014.2hPa Calm     97% 0in /  0.0mm 0 W/m2
08:08 33.1 °F /  0.6 °C 32.4 °F /  0.2 °C 29.9in /  1013.9hPa Calm     97% 0in /  0.0mm 0 W/m2
08:13 33.3 °F /  0.7 °C 32.5 °F /  0.3 °C 30in /  1014.2hPa Calm     97% 0in /  0.0mm 0 W/m2
08:18 33.1 °F /  0.6 °C 32.4 °F /  0.2 °C 30in /  1014.2hPa Calm     97% 0in /  0.0mm 0 W/m2
08:23 33.1 °F /  0.6 °C 32.4 °F /  0.2 °C 30in /  1014.2hPa Calm     97% 0in /  0.0mm 5 W/m2
08:28 33.1 °F /  0.6 °C 32.4 °F /  0.2 °C 30in /  1014.6hPa Calm     97% 0in /  0.0mm 7 W/m2
08:33 33.1 °F /  0.6 °C 32.4 °F /  0.2 °C 30in /  1014.6hPa Calm     97% 0in /  0.0mm 11 W/m2
08:38 33.1 °F /  0.6 °C 32.4 °F /  0.2 °C 30in /  1014.6hPa Calm     97% 0in /  0.0mm 11 W/m2
08:43 32.7 °F /  0.4 °C 32 °F /  0 °C 30in /  1014.6hPa Calm     97% 0in /  0.0mm 14 W/m2
08:48 32.7 °F /  0.4 °C 32 °F /  0 °C 30in /  1014.6hPa Calm     97% 0in /  0.0mm 19 W/m2
08:53 32.7 °F /  0.4 °C 32 °F /  0 °C 30in /  1014.9hPa Calm     97% 0in /  0.0mm 18 W/m2
08:58 32.5 °F /  0.3 °C 31.8 °F /  -0.1 °C 30in /  1014.9hPa Calm     97% 0in /  0.0mm 21 W/m2
09:03 32.5 °F /  0.3 °C 31.8 °F /  -0.1 °C 30in /  1014.9hPa Calm     97% 0in /  0.0mm 21 W/m2
09:08 32.5 °F /  0.3 °C 31.8 °F /  -0.1 °C 30in /  1015.2hPa Calm     97% 0in /  0.0mm 28 W/m2
09:13 32.5 °F /  0.3 °C 31.8 °F /  -0.1 °C 30in /  1015.2hPa Calm     97% 0in /  0.0mm 25 W/m2
09:18 32.7 °F /  0.4 °C 32 °F /  0 °C 30in /  1014.9hPa Calm     97% 0in /  0.0mm 26 W/m2
09:23 32.9 °F /  0.5 °C 32.2 °F /  0.1 °C 30in /  1014.9hPa Calm     97% 0in /  0.0mm 26 W/m2
09:28 33.3 °F /  0.7 °C 32.5 °F /  0.3 °C 30in /  1014.9hPa East 0.9mph /  1.4km/h 3mph /  4.8km/h 97% 0in /  0.0mm 21 W/m2
09:33 33.6 °F /  0.9 °C 32.9 °F /  0.5 °C 30in /  1015.2hPa Calm     97% 0in /  0.0mm 23 W/m2
09:38 34 °F /  1.1 °C 33.3 °F /  0.7 °C 30in /  1015.2hPa Calm   2mph /  3.2km/h 97% 0in /  0.0mm 28 W/m2
09:43 34.2 °F /  1.2 °C 33.4 °F /  0.8 °C 30in /  1015.2hPa NE 2mph /  3.2km/h 3mph /  4.8km/h 97% 0in /  0.0mm 35 W/m2
09:48 34.3 °F /  1.3 °C 33.6 °F /  0.9 °C 30in /  1015.2hPa East 0.9mph /  1.4km/h 2mph /  3.2km/h 97% 0in /  0.0mm 42 W/m2
09:53 34.5 °F /  1.4 °C 33.8 °F /  1 °C 30in /  1015.2hPa East 0.9mph /  1.4km/h 3mph /  4.8km/h 97% 0in /  0.0mm 37 W/m2
09:58 34.5 °F /  1.4 °C 33.8 °F /  1 °C 30in /  1015.2hPa ESE 2mph /  3.2km/h 3mph /  4.8km/h 97% 0in /  0.0mm 28 W/m2
10:03 34.5 °F /  1.4 °C 33.8 °F /  1 °C 30in /  1015.6hPa Calm   2mph /  3.2km/h 97% 0in /  0.0mm 26 W/m2
10:08 34.7 °F /  1.5 °C 34 °F /  1.1 °C 30in /  1015.6hPa Calm   2mph /  3.2km/h 97% 0in /  0.0mm 25 W/m2
10:13 34.9 °F /  1.6 °C 34.2 °F /  1.2 °C 30in /  1015.6hPa Calm   1mph /  1.6km/h 97% 0in /  0.0mm 30 W/m2
10:18 34.9 °F /  1.6 °C 34.2 °F /  1.2 °C 30in /  1015.6hPa ESE 0.9mph /  1.4km/h 4mph /  6.4km/h 97% 0in /  0.0mm 35 W/m2
10:23 34.9 °F /  1.6 °C 34.2 °F /  1.2 °C 30in /  1015.6hPa SE 0.9mph /  1.4km/h 2mph /  3.2km/h 97% 0in /  0.0mm 32 W/m2
10:28 34.9 °F /  1.6 °C 34.2 °F /  1.2 °C 30in /  1015.6hPa Calm   4mph /  6.4km/h 97% 0in /  0.0mm 33 W/m2
10:33 34.9 °F /  1.6 °C 34.2 °F /  1.2 °C 30in /  1015.6hPa ESE 2mph /  3.2km/h 2mph /  3.2km/h 97% 0in /  0.0mm 30 W/m2
10:38 34.9 °F /  1.6 °C 34.2 °F /  1.2 °C 30in /  1015.6hPa ESE 2.9mph /  4.7km/h 3mph /  4.8km/h 97% 0in /  0.0mm 44 W/m2
10:43 34.9 °F /  1.6 °C 34.2 °F /  1.2 °C 30in /  1015.9hPa ESE 0.9mph /  1.4km/h 2mph /  3.2km/h 97% 0in /  0.0mm 35 W/m2
10:48 34.9 °F /  1.6 °C 34.2 °F /  1.2 °C 30in /  1015.9hPa Calm   1mph /  1.6km/h 97% 0in /  0.0mm 42 W/m2
10:53 34.9 °F /  1.6 °C 34.2 °F /  1.2 °C 30in /  1015.9hPa Calm   1mph /  1.6km/h 97% 0in /  0.0mm 42 W/m2
10:58 34.9 °F /  1.6 °C 34.2 °F /  1.2 °C 30in /  1015.9hPa East 0.9mph /  1.4km/h 1mph /  1.6km/h 97% 0in /  0.0mm 44 W/m2
11:03 35.1 °F /  1.7 °C 34.3 °F /  1.3 °C 30in /  1015.9hPa Calm   3mph /  4.8km/h 97% 0in /  0.0mm 54 W/m2
11:08 35.1 °F /  1.7 °C 34.3 °F /  1.3 °C 30in /  1015.9hPa West 0.9mph /  1.4km/h 2mph /  3.2km/h 97% 0in /  0.0mm 63 W/m2
11:13 35.1 °F /  1.7 °C 34.3 °F /  1.3 °C 30in /  1015.9hPa West 2mph /  3.2km/h 3mph /  4.8km/h 97% 0in /  0.0mm 56 W/m2
11:18 35.1 °F /  1.7 °C 34.3 °F /  1.3 °C 30in /  1015.9hPa West 2.9mph /  4.7km/h 3mph /  4.8km/h 97% 0in /  0.0mm 62 W/m2
11:23 35.1 °F /  1.7 °C 34.3 °F /  1.3 °C 30in /  1015.9hPa WSW 2mph /  3.2km/h 3mph /  4.8km/h 97% 0in /  0.0mm 67 W/m2
11:28 35.1 °F /  1.7 °C 34.3 °F /  1.3 °C 30in /  1015.9hPa WNW 2mph /  3.2km/h 2mph /  3.2km/h 97% 0in /  0.0mm 63 W/m2
11:33 35.1 °F /  1.7 °C 34.3 °F /  1.3 °C 30in /  1015.9hPa WNW 0.9mph /  1.4km/h 3mph /  4.8km/h 97% 0in /  0.0mm 70 W/m2
11:38 35.1 °F /  1.7 °C 34.3 °F /  1.3 °C 30in /  1015.9hPa NW 0.9mph /  1.4km/h 4mph /  6.4km/h 97% 0in /  0.0mm 74 W/m2
11:43 35.1 °F /  1.7 °C 34.3 °F /  1.3 °C 30in /  1015.9hPa WNW 2.9mph /  4.7km/h 5mph /  8km/h 97% 0in /  0.0mm 62 W/m2
11:48 35.1 °F /  1.7 °C 34.3 °F /  1.3 °C 30in /  1015.6hPa NW 2mph /  3.2km/h 3mph /  4.8km/h 97% 0in /  0.0mm 67 W/m2
11:53 35.2 °F /  1.8 °C 34.5 °F /  1.4 °C 30in /  1015.6hPa Calm   5mph /  8km/h 97% 0in /  0.0mm 84 W/m2
11:58 35.2 °F /  1.8 °C 34.5 °F /  1.4 °C 30in /  1015.6hPa Calm     97% 0in /  0.0mm 79 W/m2
12:03 35.4 °F /  1.9 °C 34.7 °F /  1.5 °C 30in /  1015.6hPa Calm   4mph /  6.4km/h 97% 0in /  0.0mm 93 W/m2
12:08 35.2 °F /  1.8 °C 34.5 °F /  1.4 °C 30in /  1015.6hPa Calm   2mph /  3.2km/h 97% 0in /  0.0mm 116 W/m2
12:13 35.4 °F /  1.9 °C 34.7 °F /  1.5 °C 30in /  1015.2hPa WSW 2mph /  3.2km/h 4mph /  6.4km/h 97% 0in /  0.0mm 84 W/m2
12:18 35.4 °F /  1.9 °C 34.7 °F /  1.5 °C 30in /  1015.2hPa ESE 2mph /  3.2km/h 6mph /  9.7km/h 97% 0in /  0.0mm 95 W/m2
12:23 35.4 °F /  1.9 °C 34.7 °F /  1.5 °C 30in /  1015.2hPa WNW 2mph /  3.2km/h 4mph /  6.4km/h 97% 0in /  0.0mm 83 W/m2
12:28 35.4 °F /  1.9 °C 34.7 °F /  1.5 °C 30in /  1015.2hPa Calm   2mph /  3.2km/h 97% 0in /  0.0mm 62 W/m2
12:33 35.6 °F /  2 °C 34.9 °F /  1.6 °C 30in /  1015.2hPa Calm   3mph /  4.8km/h 97% 0in /  0.0mm 69 W/m2
12:38 35.6 °F /  2 °C 34.9 °F /  1.6 °C 30in /  1015.2hPa Calm   1mph /  1.6km/h 97% 0in /  0.0mm 67 W/m2
12:43 35.8 °F /  2.1 °C 35.1 °F /  1.7 °C 30in /  1014.9hPa ENE 0.9mph /  1.4km/h 3mph /  4.8km/h 97% 0in /  0.0mm 74 W/m2
12:48 35.6 °F /  2 °C 34.9 °F /  1.6 °C 30in /  1014.9hPa WNW 0.9mph /  1.4km/h 3mph /  4.8km/h 97% 0in /  0.0mm 58 W/m2
12:53 35.4 °F /  1.9 °C 34.7 °F /  1.5 °C 30in /  1014.9hPa East 4mph /  6.4km/h 6mph /  9.7km/h 97% 0in /  0.0mm 56 W/m2
12:58 35.4 °F /  1.9 °C 34.7 °F /  1.5 °C 30in /  1014.9hPa ESE 0.9mph /  1.4km/h 7mph /  11.3km/h 97% 0in /  0.0mm 49 W/m2
13:03 35.4 °F /  1.9 °C 34.3 °F /  1.3 °C 30in /  1014.9hPa Calm     96% 0in /  0.0mm 42 W/m2
13:08 35.6 °F /  2 °C 34.5 °F /  1.4 °C 30in /  1015.2hPa Calm   7mph /  11.3km/h 96% 0in /  0.0mm 37 W/m2
13:13 35.6 °F /  2 °C 34.5 °F /  1.4 °C 30in /  1014.9hPa SSW 0.9mph /  1.4km/h 4mph /  6.4km/h 96% 0in /  0.0mm 33 W/m2
13:18 35.4 °F /  1.9 °C 34.3 °F /  1.3 °C 30in /  1014.9hPa Calm   3mph /  4.8km/h 96% 0in /  0.0mm 28 W/m2
13:23 35.6 °F /  2 °C 34.5 °F /  1.4 °C 30in /  1014.6hPa Calm   1mph /  1.6km/h 96% 0in /  0.0mm 40 W/m2
13:28 35.8 °F /  2.1 °C 34.7 °F /  1.5 °C 30in /  1014.6hPa Calm   3mph /  4.8km/h 96% 0in /  0.0mm 46 W/m2
13:33 35.8 °F /  2.1 °C 34.7 °F /  1.5 °C 30in /  1014.6hPa Calm     96% 0in /  0.0mm 44 W/m2
13:38 36 °F /  2.2 °C 34.9 °F /  1.6 °C 30in /  1014.6hPa Calm   2mph /  3.2km/h 96% 0in /  0.0mm 72 W/m2
13:43 36.1 °F /  2.3 °C 35.1 °F /  1.7 °C 30in /  1014.6hPa Calm   1mph /  1.6km/h 96% 0in /  0.0mm 118 W/m2
13:48 36.1 °F /  2.3 °C 35.1 °F /  1.7 °C 30in /  1014.6hPa NNW 0.9mph /  1.4km/h 2mph /  3.2km/h 96% 0in /  0.0mm 125 W/m2
13:58 36.9 °F /  2.7 °C 35.8 °F /  2.1 °C 30in /  1014.6hPa North 2mph /  3.2km/h 2mph /  3.2km/h 96% 0in /  0.0mm 65 W/m2
14:03 36.9 °F /  2.7 °C 35.6 °F /  2 °C 30in /  1014.2hPa ENE 2mph /  3.2km/h 2mph /  3.2km/h 95% 0in /  0.0mm 79 W/m2
14:08 37 °F /  2.8 °C 35.8 °F /  2.1 °C 30in /  1014.2hPa ENE 0.9mph /  1.4km/h 2mph /  3.2km/h 95% 0in /  0.0mm 81 W/m2
14:13 37.2 °F /  2.9 °C 36 °F /  2.2 °C 30in /  1014.2hPa Calm   1mph /  1.6km/h 95% 0in /  0.0mm 51 W/m2
14:18 37.2 °F /  2.9 °C 35.6 °F /  2 °C 29.9in /  1013.9hPa Calm     94% 0in /  0.0mm 79 W/m2
14:23 37.4 °F /  3 °C 35.8 °F /  2.1 °C 30in /  1014.2hPa Calm     94% 0in /  0.0mm 60 W/m2
14:28 37.4 °F /  3 °C 35.8 °F /  2.1 °C 29.9in /  1013.9hPa Calm     94% 0in /  0.0mm 74 W/m2
14:33 37.6 °F /  3.1 °C 36 °F /  2.2 °C 29.9in /  1013.9hPa Calm     94% 0in /  0.0mm 84 W/m2
14:38 37.8 °F /  3.2 °C 36 °F /  2.2 °C 29.9in /  1013.9hPa Calm     93% 0in /  0.0mm 79 W/m2
14:43 37.8 °F /  3.2 °C 36 °F /  2.2 °C 29.9in /  1013.9hPa Calm     93% 0in /  0.0mm 74 W/m2
14:48 37.9 °F /  3.3 °C 36.1 °F /  2.3 °C 29.9in /  1013.5hPa Calm     93% 0in /  0.0mm 72 W/m2
14:53 38.1 °F /  3.4 °C 36.3 °F /  2.4 °C 29.9in /  1013.5hPa Calm     93% 0in /  0.0mm 79 W/m2
14:58 38.3 °F /  3.5 °C 36.5 °F /  2.5 °C 29.9in /  1013.5hPa Calm     93% 0in /  0.0mm 98 W/m2
15:03 38.5 °F /  3.6 °C 36.3 °F /  2.4 °C 29.9in /  1013.5hPa Calm   2mph /  3.2km/h 92% 0in /  0.0mm 28 W/m2
15:08 38.5 °F /  3.6 °C 36.3 °F /  2.4 °C 29.9in /  1013.5hPa Calm   1mph /  1.6km/h 92% 0in /  0.0mm 25 W/m2
15:13 38.5 °F /  3.6 °C 36.3 °F /  2.4 °C 29.9in /  1013.5hPa Calm   2mph /  3.2km/h 92% 0in /  0.0mm 21 W/m2
15:18 38.5 °F /  3.6 °C 36.3 °F /  2.4 °C 29.9in /  1013.5hPa Calm     92% 0in /  0.0mm 11 W/m2
15:23 38.3 °F /  3.5 °C 36.1 °F /  2.3 °C 29.9in /  1013.5hPa Calm   1mph /  1.6km/h 92% 0in /  0.0mm 21 W/m2
15:28 38.3 °F /  3.5 °C 36.1 °F /  2.3 °C 29.9in /  1013.5hPa Calm     92% 0in /  0.0mm 12 W/m2
15:33 38.3 °F /  3.5 °C 36.1 °F /  2.3 °C 29.9in /  1013.5hPa East 0.9mph /  1.4km/h 2mph /  3.2km/h 92% 0in /  0.0mm 23 W/m2
15:38 38.5 °F /  3.6 °C 36.3 °F /  2.4 °C 29.9in /  1013.2hPa East 2mph /  3.2km/h 2mph /  3.2km/h 92% 0in /  0.0mm 21 W/m2
15:43 38.5 °F /  3.6 °C 36.7 °F /  2.6 °C 29.9in /  1013.2hPa Calm     93% 0in /  0.0mm 16 W/m2
15:48 38.5 °F /  3.6 °C 36.7 °F /  2.6 °C 29.9in /  1013.2hPa Calm   1mph /  1.6km/h 93% 0in /  0.0mm 23 W/m2
15:53 38.5 °F /  3.6 °C 36.7 °F /  2.6 °C 29.9in /  1012.9hPa Calm   1mph /  1.6km/h 93% 0in /  0.0mm 23 W/m2
15:58 38.5 °F /  3.6 °C 36.7 °F /  2.6 °C 29.9in /  1012.9hPa East 0.9mph /  1.4km/h 2mph /  3.2km/h 93% 0in /  0.0mm 19 W/m2
16:03 38.5 °F /  3.6 °C 36.7 °F /  2.6 °C 29.9in /  1012.9hPa Calm   1mph /  1.6km/h 93% 0in /  0.0mm 16 W/m2
16:08 38.5 °F /  3.6 °C 36.7 °F /  2.6 °C 29.9in /  1012.9hPa East 2mph /  3.2km/h 2mph /  3.2km/h 93% 0in /  0.0mm 14 W/m2
Juneau County Weather
Compliments of Weather Underground - 2 mb